createdAt,value
2023-05-17T00:00:31.164Z,1022.60
2023-05-17T00:01:31.112Z,1022.62
2023-05-17T00:02:31.150Z,1022.61
2023-05-17T00:03:31.075Z,1022.61
2023-05-17T00:04:31.070Z,1022.63
2023-05-17T00:05:31.046Z,1022.65
2023-05-17T00:06:31.094Z,1022.66
2023-05-17T00:07:31.037Z,1022.68
2023-05-17T00:08:31.007Z,1022.70
2023-05-17T00:09:31.001Z,1022.66
2023-05-17T00:10:30.994Z,1022.65
2023-05-17T00:11:30.969Z,1022.67
2023-05-17T00:12:30.971Z,1022.68
2023-05-17T00:13:30.952Z,1022.63
2023-05-17T00:14:30.953Z,1022.65
2023-05-17T00:15:30.918Z,1022.68
2023-05-17T00:16:30.909Z,1022.66
2023-05-17T00:17:30.969Z,1022.67
2023-05-17T00:18:30.954Z,1022.70
2023-05-17T00:19:30.971Z,1022.69
2023-05-17T00:20:30.858Z,1022.66
2023-05-17T00:21:30.882Z,1022.64
2023-05-17T00:22:30.854Z,1022.66
2023-05-17T00:23:30.809Z,1022.63
2023-05-17T00:24:30.788Z,1022.63
2023-05-17T00:25:31.008Z,1022.67
2023-05-17T00:26:30.784Z,1022.69
2023-05-17T00:27:30.791Z,1022.66
2023-05-17T00:28:30.764Z,1022.65
2023-05-17T00:29:30.763Z,1022.68
2023-05-17T00:30:30.782Z,1022.70
2023-05-17T00:31:30.711Z,1022.71
2023-05-17T00:32:30.816Z,1022.71
2023-05-17T00:33:30.693Z,1022.70
2023-05-17T00:34:30.698Z,1022.68
2023-05-17T00:35:30.813Z,1022.72
2023-05-17T00:36:30.656Z,1022.69
2023-05-17T00:37:30.669Z,1022.70
2023-05-17T00:38:30.696Z,1022.72
2023-05-17T00:39:30.607Z,1022.71
2023-05-17T00:40:30.613Z,1022.69
2023-05-17T00:41:30.588Z,1022.70
2023-05-17T00:42:30.595Z,1022.68
2023-05-17T00:43:30.547Z,1022.68
2023-05-17T00:44:30.543Z,1022.74
2023-05-17T00:45:30.632Z,1022.71
2023-05-17T00:46:30.535Z,1022.71
2023-05-17T00:47:30.530Z,1022.70
2023-05-17T00:48:30.641Z,1022.70
2023-05-17T00:49:30.518Z,1022.66
2023-05-17T00:50:30.467Z,1022.66
2023-05-17T00:51:30.459Z,1022.69
2023-05-17T00:52:30.456Z,1022.68
2023-05-17T00:53:30.418Z,1022.65
2023-05-17T00:54:30.423Z,1022.69
2023-05-17T00:55:30.525Z,1022.69
2023-05-17T00:56:30.380Z,1022.66
2023-05-17T00:57:30.364Z,1022.65
2023-05-17T00:58:30.353Z,1022.64
2023-05-17T00:59:30.386Z,1022.62
2023-05-17T01:00:30.334Z,1022.64
2023-05-17T01:01:30.310Z,1022.69
2023-05-17T01:02:30.386Z,1022.66
2023-05-17T01:03:30.365Z,1022.66
2023-05-17T01:04:30.423Z,1022.67
2023-05-17T01:05:30.520Z,1022.65
2023-05-17T01:06:30.267Z,1022.64
2023-05-17T01:07:30.241Z,1022.67
2023-05-17T01:08:30.248Z,1022.68
2023-05-17T01:09:30.210Z,1022.67
2023-05-17T01:10:30.213Z,1022.69
2023-05-17T01:11:30.178Z,1022.72
2023-05-17T01:12:30.200Z,1022.71
2023-05-17T01:13:30.198Z,1022.70
2023-05-17T01:14:30.151Z,1022.68
2023-05-17T01:15:30.300Z,1022.65
2023-05-17T01:16:30.120Z,1022.65
2023-05-17T01:17:30.197Z,1022.64
2023-05-17T01:18:30.192Z,1022.65
2023-05-17T01:19:30.250Z,1022.63
2023-05-17T01:20:30.121Z,1022.64
2023-05-17T01:21:30.073Z,1022.68
2023-05-17T01:22:30.040Z,1022.67
2023-05-17T01:23:30.019Z,1022.66
2023-05-17T01:24:30.018Z,1022.65
2023-05-17T01:25:30.179Z,1022.64
2023-05-17T01:26:29.999Z,1022.64
2023-05-17T01:27:29.995Z,1022.69
2023-05-17T01:28:37.524Z,1022.65
2023-05-17T01:29:29.973Z,1022.68
2023-05-17T01:30:29.939Z,1022.69
2023-05-17T01:31:29.931Z,1022.71
2023-05-17T01:32:30.010Z,1022.68
2023-05-17T01:33:29.980Z,1022.68
2023-05-17T01:34:29.904Z,1022.70
2023-05-17T01:35:30.075Z,1022.71
2023-05-17T01:36:29.905Z,1022.69
2023-05-17T01:37:29.858Z,1022.66
2023-05-17T01:38:29.857Z,1022.64
2023-05-17T01:39:29.818Z,1022.66
2023-05-17T01:40:29.818Z,1022.66
2023-05-17T01:41:29.817Z,1022.70
2023-05-17T01:42:29.813Z,1022.73
2023-05-17T01:43:29.801Z,1022.72
2023-05-17T01:44:31.324Z,1022.70
2023-05-17T01:45:29.998Z,1022.70
2023-05-17T01:46:29.738Z,1022.70
2023-05-17T01:47:29.748Z,1022.75
2023-05-17T01:48:29.724Z,1022.80
2023-05-17T01:49:29.703Z,1022.82
2023-05-17T01:50:29.683Z,1022.78
2023-05-17T01:51:29.666Z,1022.79
2023-05-17T01:52:29.663Z,1022.77
2023-05-17T01:53:29.660Z,1022.75
2023-05-17T01:54:29.626Z,1022.76
2023-05-17T01:55:29.793Z,1022.74
2023-05-17T01:56:29.619Z,1022.76
2023-05-17T01:57:29.612Z,1022.77
2023-05-17T01:58:29.578Z,1022.78
2023-05-17T01:59:29.602Z,1022.76
2023-05-17T02:00:29.556Z,1022.72
2023-05-17T02:01:29.582Z,1022.72
2023-05-17T02:02:29.603Z,1022.74
2023-05-17T02:03:29.552Z,1022.78
2023-05-17T02:04:29.535Z,1022.76
2023-05-17T02:05:29.790Z,1022.74
2023-05-17T02:06:29.465Z,1022.75
2023-05-17T02:07:29.467Z,1022.70
2023-05-17T02:08:29.486Z,1022.71
2023-05-17T02:09:29.452Z,1022.73
2023-05-17T02:10:29.421Z,1022.77
2023-05-17T02:11:29.405Z,1022.76
2023-05-17T02:12:29.397Z,1022.76
2023-05-17T02:13:29.387Z,1022.75
2023-05-17T02:14:29.379Z,1022.77
2023-05-17T02:15:29.502Z,1022.77
2023-05-17T02:16:29.347Z,1022.82
2023-05-17T02:17:29.404Z,1022.82
2023-05-17T02:18:29.539Z,1022.84
2023-05-17T02:19:29.339Z,1022.89
2023-05-17T02:20:29.322Z,1022.91
2023-05-17T02:21:29.264Z,1022.91
2023-05-17T02:22:29.261Z,1022.89
2023-05-17T02:23:29.262Z,1022.90
2023-05-17T02:24:29.240Z,1022.87
2023-05-17T02:25:29.412Z,1022.84
2023-05-17T02:26:29.232Z,1022.86
2023-05-17T02:27:29.197Z,1022.88
2023-05-17T02:28:29.182Z,1022.84
2023-05-17T02:29:29.184Z,1022.86
2023-05-17T02:30:29.195Z,1022.89
2023-05-17T02:31:29.151Z,1022.88
2023-05-17T02:32:29.308Z,1022.92
2023-05-17T02:33:29.215Z,1022.90
2023-05-17T02:34:29.112Z,1022.88
2023-05-17T02:35:29.350Z,1022.89
2023-05-17T02:36:29.092Z,1022.88
2023-05-17T02:37:29.063Z,1022.86
2023-05-17T02:38:29.065Z,1022.89
2023-05-17T02:39:29.040Z,1022.93
2023-05-17T02:40:29.052Z,1022.94
2023-05-17T02:41:29.046Z,1022.92
2023-05-17T02:42:28.996Z,1022.95
2023-05-17T02:43:29.034Z,1022.96
2023-05-17T02:44:29.000Z,1022.97
2023-05-17T02:45:29.250Z,1022.97
2023-05-17T02:46:28.962Z,1022.97
2023-05-17T02:47:29.079Z,1023.00
2023-05-17T02:48:29.013Z,1022.98
2023-05-17T02:49:28.918Z,1022.99
2023-05-17T02:50:28.889Z,1023.00
2023-05-17T02:51:28.896Z,1023.02
2023-05-17T02:52:28.908Z,1023.05
2023-05-17T02:53:28.894Z,1023.00
2023-05-17T02:54:28.835Z,1023.01
2023-05-17T02:55:29.112Z,1023.03
2023-05-17T02:56:28.814Z,1023.04
2023-05-17T02:57:28.812Z,1023.05
2023-05-17T02:58:28.811Z,1023.04
2023-05-17T02:59:28.786Z,1023.06
2023-05-17T03:00:28.790Z,1023.07
2023-05-17T03:01:28.791Z,1023.11
2023-05-17T03:02:28.787Z,1023.13
2023-05-17T03:03:28.915Z,1023.14
2023-05-17T03:04:28.761Z,1023.12
2023-05-17T03:05:28.951Z,1023.12
2023-05-17T03:06:28.804Z,1023.15
2023-05-17T03:07:28.734Z,1023.12
2023-05-17T03:08:28.706Z,1023.13
2023-05-17T03:09:28.702Z,1023.14
2023-05-17T03:10:28.646Z,1023.12
2023-05-17T03:11:29.583Z,1023.15
2023-05-17T03:12:29.680Z,1023.14
2023-05-17T03:13:28.623Z,1023.16
2023-05-17T03:14:28.572Z,1023.15
2023-05-17T03:15:28.726Z,1023.14
2023-05-17T03:16:28.548Z,1023.14
2023-05-17T03:17:28.627Z,1023.12
2023-05-17T03:18:28.700Z,1023.14
2023-05-17T03:19:28.579Z,1023.15
2023-05-17T03:20:28.616Z,1023.15
2023-05-17T03:21:28.589Z,1023.11
2023-05-17T03:22:28.469Z,1023.12
2023-05-17T03:23:28.493Z,1023.18
2023-05-17T03:24:28.442Z,1023.19
2023-05-17T03:25:28.750Z,1023.19
2023-05-17T03:26:28.442Z,1023.22
2023-05-17T03:27:28.413Z,1023.28
2023-05-17T03:28:28.394Z,1023.25
2023-05-17T03:29:28.402Z,1023.27
2023-05-17T03:30:28.385Z,1023.26
2023-05-17T03:31:28.371Z,1023.26
2023-05-17T03:32:28.409Z,1023.29
2023-05-17T03:33:28.394Z,1023.32
2023-05-17T03:34:28.350Z,1023.30
2023-05-17T03:35:28.682Z,1023.34
2023-05-17T03:36:28.340Z,1023.31
2023-05-17T03:37:28.314Z,1023.32
2023-05-17T03:38:28.259Z,1023.31
2023-05-17T03:39:28.280Z,1023.31
2023-05-17T03:40:28.233Z,1023.34
2023-05-17T03:41:28.223Z,1023.34
2023-05-17T03:42:28.258Z,1023.37
2023-05-17T03:43:28.196Z,1023.33
2023-05-17T03:44:28.191Z,1023.35
2023-05-17T03:45:28.482Z,1023.36
2023-05-17T03:46:28.156Z,1023.39
2023-05-17T03:47:28.211Z,1023.35
2023-05-17T03:48:28.204Z,1023.37
2023-05-17T03:49:28.120Z,1023.34
2023-05-17T03:50:28.122Z,1023.37
2023-05-17T03:51:28.125Z,1023.34
2023-05-17T03:52:28.102Z,1023.37
2023-05-17T03:53:28.111Z,1023.32
2023-05-17T03:54:28.049Z,1023.39
2023-05-17T03:55:28.254Z,1023.40
2023-05-17T03:56:28.043Z,1023.40
2023-05-17T03:57:28.070Z,1023.46
2023-05-17T03:58:28.027Z,1023.47
2023-05-17T03:59:28.012Z,1023.48
2023-05-17T04:00:27.979Z,1023.48
2023-05-17T04:01:28.006Z,1023.50
2023-05-17T04:02:27.965Z,1023.49
2023-05-17T04:03:27.966Z,1023.49
2023-05-17T04:04:28.028Z,1023.54
2023-05-17T04:05:28.222Z,1023.54
2023-05-17T04:06:27.906Z,1023.53
2023-05-17T04:07:27.944Z,1023.58
2023-05-17T04:08:27.903Z,1023.54
2023-05-17T04:09:27.911Z,1023.54
2023-05-17T04:10:27.877Z,1023.59
2023-05-17T04:11:27.843Z,1023.60
2023-05-17T04:12:27.827Z,1023.62
2023-05-17T04:13:27.863Z,1023.61
2023-05-17T04:14:27.860Z,1023.64
2023-05-17T04:15:28.001Z,1023.62
2023-05-17T04:16:27.795Z,1023.58
2023-05-17T04:17:27.817Z,1023.60
2023-05-17T04:18:27.784Z,1023.66
2023-05-17T04:19:27.907Z,1023.65
2023-05-17T04:20:27.772Z,1023.67
2023-05-17T04:21:27.723Z,1023.67
2023-05-17T04:22:27.728Z,1023.68
2023-05-17T04:23:27.723Z,1023.66
2023-05-17T04:24:27.704Z,1023.64
2023-05-17T04:25:27.969Z,1023.65
2023-05-17T04:26:27.683Z,1023.68
2023-05-17T04:27:27.698Z,1023.69
2023-05-17T04:28:27.646Z,1023.76
2023-05-17T04:29:27.682Z,1023.72
2023-05-17T04:30:27.633Z,1023.71
2023-05-17T04:31:27.614Z,1023.76
2023-05-17T04:32:27.620Z,1023.78
2023-05-17T04:33:27.676Z,1023.82
2023-05-17T04:34:27.595Z,1023.81
2023-05-17T04:35:27.872Z,1023.84
2023-05-17T04:36:27.547Z,1023.85
2023-05-17T04:37:27.576Z,1023.86
2023-05-17T04:38:27.553Z,1023.87
2023-05-17T04:39:29.434Z,1023.91
2023-05-17T04:40:27.512Z,1023.88
2023-05-17T04:41:27.492Z,1023.90
2023-05-17T04:42:27.481Z,1023.91
2023-05-17T04:43:27.465Z,1023.93
2023-05-17T04:44:27.452Z,1023.95
2023-05-17T04:45:27.641Z,1023.99
2023-05-17T04:46:27.428Z,1023.98
2023-05-17T04:47:27.525Z,1024.00
2023-05-17T04:48:27.503Z,1024.01
2023-05-17T04:49:27.478Z,1024.05
2023-05-17T04:50:27.376Z,1024.05
2023-05-17T04:51:27.448Z,1024.07
2023-05-17T04:52:27.374Z,1024.00
2023-05-17T04:53:27.351Z,1024.04
2023-05-17T04:54:27.357Z,1023.99
2023-05-17T04:55:27.538Z,1024.02
2023-05-17T04:56:27.304Z,1024.03
2023-05-17T04:57:27.313Z,1024.07
2023-05-17T04:58:27.270Z,1024.02
2023-05-17T04:59:27.262Z,1024.03
2023-05-17T05:00:27.272Z,1024.02
2023-05-17T05:01:27.323Z,1024.05
2023-05-17T05:02:27.249Z,1024.08
2023-05-17T05:03:27.262Z,1024.08
2023-05-17T05:04:27.227Z,1024.11
2023-05-17T05:05:27.329Z,1024.09
2023-05-17T05:06:27.210Z,1024.02
2023-05-17T05:07:27.163Z,1024.06
2023-05-17T05:08:27.187Z,1024.09
2023-05-17T05:09:27.169Z,1024.13
2023-05-17T05:10:27.182Z,1024.13
2023-05-17T05:11:27.134Z,1024.13
2023-05-17T05:12:27.112Z,1024.18
2023-05-17T05:13:27.098Z,1024.18
2023-05-17T05:14:27.095Z,1024.19
2023-05-17T05:15:27.237Z,1024.18
2023-05-17T05:16:27.095Z,1024.21
2023-05-17T05:17:27.135Z,1024.23
2023-05-17T05:18:27.087Z,1024.27
2023-05-17T05:19:27.067Z,1024.25
2023-05-17T05:20:28.133Z,1024.27
2023-05-17T05:21:27.032Z,1024.29
2023-05-17T05:22:26.994Z,1024.28
2023-05-17T05:23:26.965Z,1024.27
2023-05-17T05:24:26.988Z,1024.30
2023-05-17T05:25:27.154Z,1024.31
2023-05-17T05:26:26.941Z,1024.39
2023-05-17T05:27:26.913Z,1024.32
2023-05-17T05:28:26.943Z,1024.33
2023-05-17T05:29:26.878Z,1024.36
2023-05-17T05:30:26.916Z,1024.37
2023-05-17T05:31:26.896Z,1024.42
2023-05-17T05:32:26.895Z,1024.40
2023-05-17T05:33:26.905Z,1024.39
2023-05-17T05:34:26.809Z,1024.43
2023-05-17T05:35:27.004Z,1024.43
2023-05-17T05:36:26.816Z,1024.48
2023-05-17T05:37:26.776Z,1024.48
2023-05-17T05:38:26.762Z,1024.49
2023-05-17T05:39:26.800Z,1024.42
2023-05-17T05:40:27.003Z,1024.47
2023-05-17T05:41:26.766Z,1024.48
2023-05-17T05:42:26.746Z,1024.48
2023-05-17T05:43:26.710Z,1024.47
2023-05-17T05:44:26.707Z,1024.49
2023-05-17T05:45:26.742Z,1024.49
2023-05-17T05:46:26.666Z,1024.46
2023-05-17T05:47:27.359Z,1024.50
2023-05-17T05:48:26.723Z,1024.48
2023-05-17T05:49:26.637Z,1024.53
2023-05-17T05:50:26.752Z,1024.55
2023-05-17T05:51:26.811Z,1024.52
2023-05-17T05:52:26.572Z,1024.54
2023-05-17T05:53:26.605Z,1024.55
2023-05-17T05:54:26.566Z,1024.58
2023-05-17T05:55:26.580Z,1024.60
2023-05-17T05:56:26.563Z,1024.63
2023-05-17T05:57:28.499Z,1024.64
2023-05-17T05:58:26.515Z,1024.64
2023-05-17T05:59:26.614Z,1024.61
2023-05-17T06:00:26.548Z,1024.61
2023-05-17T06:01:26.495Z,1024.68
2023-05-17T06:02:26.530Z,1024.67
2023-05-17T06:03:26.449Z,1024.68
2023-05-17T06:04:36.349Z,1024.69
2023-05-17T06:05:27.437Z,1024.71
2023-05-17T06:06:26.536Z,1024.75
2023-05-17T06:07:26.421Z,1024.74
2023-05-17T06:08:26.423Z,1024.73
2023-05-17T06:09:26.364Z,1024.76
2023-05-17T06:10:26.450Z,1024.77
2023-05-17T06:11:26.355Z,1024.78
2023-05-17T06:12:26.380Z,1024.79
2023-05-17T06:13:26.347Z,1024.82
2023-05-17T06:14:26.282Z,1024.82
2023-05-17T06:15:26.263Z,1024.82
2023-05-17T06:16:26.270Z,1024.88
2023-05-17T06:17:26.280Z,1024.86
2023-05-17T06:18:26.494Z,1024.85
2023-05-17T06:19:26.471Z,1024.87
2023-05-17T06:20:26.322Z,1024.85
2023-05-17T06:21:26.205Z,1024.85
2023-05-17T06:22:26.274Z,1024.87
2023-05-17T06:23:26.231Z,1024.89
2023-05-17T06:24:26.196Z,1024.88
2023-05-17T06:25:26.143Z,1024.86
2023-05-17T06:26:26.180Z,1024.84
2023-05-17T06:27:26.209Z,1024.83
2023-05-17T06:28:26.287Z,1024.88
2023-05-17T06:29:27.074Z,1024.87
2023-05-17T06:30:26.245Z,1024.88
2023-05-17T06:31:26.182Z,1024.88
2023-05-17T06:32:26.086Z,1024.93
2023-05-17T06:33:26.188Z,1024.96
2023-05-17T06:34:26.014Z,1024.86
2023-05-17T06:35:26.376Z,1024.92
2023-05-17T06:36:26.015Z,1024.91
2023-05-17T06:37:25.972Z,1024.94
2023-05-17T06:38:25.984Z,1024.93
2023-05-17T06:39:25.956Z,1024.90
2023-05-17T06:40:26.019Z,1024.92
2023-05-17T06:41:25.942Z,1024.94
2023-05-17T06:42:25.913Z,1024.96
2023-05-17T06:43:25.923Z,1024.94
2023-05-17T06:44:25.861Z,1024.97
2023-05-17T06:45:25.854Z,1025.01
2023-05-17T06:46:25.848Z,1025.03
2023-05-17T06:47:25.935Z,1025.05
2023-05-17T06:48:25.991Z,1025.03
2023-05-17T06:49:25.854Z,1025.04
2023-05-17T06:50:25.813Z,1025.03
2023-05-17T06:51:25.844Z,1025.05
2023-05-17T06:52:25.802Z,1025.00
2023-05-17T06:53:25.763Z,1025.01
2023-05-17T06:54:25.722Z,1025.04
2023-05-17T06:55:25.724Z,1024.99
2023-05-17T06:56:25.698Z,1025.02
2023-05-17T06:57:25.723Z,1025.05
2023-05-17T06:58:25.654Z,1025.04
2023-05-17T06:59:25.670Z,1025.02
2023-05-17T07:00:25.672Z,1025.07
2023-05-17T07:01:25.648Z,1025.06
2023-05-17T07:02:25.694Z,1025.10
2023-05-17T07:03:25.708Z,1025.10
2023-05-17T07:04:25.649Z,1025.08
2023-05-17T07:05:25.697Z,1025.09
2023-05-17T07:06:25.577Z,1025.03
2023-05-17T07:07:25.604Z,1025.10
2023-05-17T07:08:25.575Z,1025.12
2023-05-17T07:09:25.508Z,1025.06
2023-05-17T07:10:25.593Z,1025.10
2023-05-17T07:11:26.473Z,1025.14
2023-05-17T07:12:25.475Z,1025.10
2023-05-17T07:13:25.500Z,1025.09
2023-05-17T07:14:25.452Z,1025.09
2023-05-17T07:15:25.492Z,1025.14
2023-05-17T07:16:25.424Z,1025.14
2023-05-17T07:17:25.457Z,1025.11
2023-05-17T07:18:25.490Z,1025.15
2023-05-17T07:19:25.581Z,1025.17
2023-05-17T07:20:25.425Z,1025.15
2023-05-17T07:21:25.341Z,1025.19
2023-05-17T07:22:25.351Z,1025.17
2023-05-17T07:23:25.348Z,1025.22
2023-05-17T07:24:25.338Z,1025.21
2023-05-17T07:25:25.346Z,1025.21
2023-05-17T07:26:25.306Z,1025.21
2023-05-17T07:27:25.294Z,1025.27
2023-05-17T07:28:25.266Z,1025.26
2023-05-17T07:29:25.228Z,1025.31
2023-05-17T07:30:25.232Z,1025.27
2023-05-17T07:31:26.218Z,1025.33
2023-05-17T07:32:25.455Z,1025.29
2023-05-17T07:33:25.318Z,1025.31
2023-05-17T07:34:25.220Z,1025.30
2023-05-17T07:35:25.171Z,1025.29
2023-05-17T07:36:25.223Z,1025.26
2023-05-17T07:37:25.154Z,1025.26
2023-05-17T07:38:25.125Z,1025.26
2023-05-17T07:39:25.107Z,1025.21
2023-05-17T07:40:25.236Z,1025.30
2023-05-17T07:41:25.091Z,1025.21
2023-05-17T07:42:25.078Z,1025.25
2023-05-17T07:43:25.048Z,1025.22
2023-05-17T07:44:25.079Z,1025.27
2023-05-17T07:45:25.031Z,1025.24
2023-05-17T07:46:25.092Z,1025.23
2023-05-17T07:47:25.024Z,1025.20
2023-05-17T07:48:25.059Z,1025.18
2023-05-17T07:49:25.018Z,1025.22
2023-05-17T07:50:25.006Z,1025.24
2023-05-17T07:51:25.096Z,1025.24
2023-05-17T07:52:24.946Z,1025.25
2023-05-17T07:53:25.866Z,1025.28
2023-05-17T07:54:24.913Z,1025.29
2023-05-17T07:55:24.908Z,1025.27
2023-05-17T07:56:24.896Z,1025.29
2023-05-17T07:57:24.851Z,1025.34
2023-05-17T07:58:24.829Z,1025.31
2023-05-17T07:59:24.825Z,1025.34
2023-05-17T08:00:24.811Z,1025.34
2023-05-17T08:01:24.801Z,1025.36
2023-05-17T08:02:24.821Z,1025.40
2023-05-17T08:03:24.750Z,1025.43
2023-05-17T08:04:24.841Z,1025.43
2023-05-17T08:05:24.769Z,1025.46
2023-05-17T08:06:24.861Z,1025.42
2023-05-17T08:07:24.707Z,1025.44
2023-05-17T08:08:24.734Z,1025.41
2023-05-17T08:09:24.667Z,1025.41
2023-05-17T08:10:24.696Z,1025.43
2023-05-17T08:11:24.661Z,1025.42
2023-05-17T08:12:24.653Z,1025.46
2023-05-17T08:13:24.615Z,1025.47
2023-05-17T08:14:24.611Z,1025.47
2023-05-17T08:15:24.655Z,1025.45
2023-05-17T08:16:24.620Z,1025.42
2023-05-17T08:17:24.625Z,1025.46
2023-05-17T08:18:24.634Z,1025.44
2023-05-17T08:19:24.611Z,1025.48
2023-05-17T08:20:24.616Z,1025.50
2023-05-17T08:21:24.481Z,1025.53
2023-05-17T08:22:24.486Z,1025.55
2023-05-17T08:23:24.455Z,1025.61
2023-05-17T08:24:24.498Z,1025.58
2023-05-17T08:25:24.449Z,1025.59
2023-05-17T08:26:24.480Z,1025.56
2023-05-17T08:27:24.497Z,1025.59
2023-05-17T08:28:24.402Z,1025.58
2023-05-17T08:29:24.404Z,1025.59
2023-05-17T08:31:24.403Z,1025.61
2023-05-17T08:32:24.381Z,1025.65
2023-05-17T08:33:24.380Z,1025.65
2023-05-17T08:34:24.381Z,1025.64
2023-05-17T08:35:26.929Z,1025.64
2023-05-17T08:36:24.310Z,1025.61
2023-05-17T08:37:24.295Z,1025.50
2023-05-17T08:38:24.285Z,1025.50
2023-05-17T08:39:24.246Z,1025.53
2023-05-17T08:40:24.302Z,1025.52
2023-05-17T08:41:24.261Z,1025.52
2023-05-17T08:42:24.227Z,1025.51
2023-05-17T08:43:25.999Z,1025.51
2023-05-17T08:44:24.190Z,1025.52
2023-05-17T08:45:24.225Z,1025.51
2023-05-17T08:46:24.180Z,1025.52
2023-05-17T08:47:24.190Z,1025.54
2023-05-17T08:48:24.234Z,1025.60
2023-05-17T08:49:24.127Z,1025.58
2023-05-17T08:50:24.132Z,1025.58
2023-05-17T08:51:24.063Z,1025.53
2023-05-17T08:52:24.058Z,1025.60
2023-05-17T08:53:24.165Z,1025.67
2023-05-17T08:54:38.772Z,1025.67
2023-05-17T08:55:24.018Z,1025.67
2023-05-17T08:56:23.973Z,1025.64
2023-05-17T08:57:24.007Z,1025.66
2023-05-17T08:58:23.968Z,1025.64
2023-05-17T08:59:24.035Z,1025.68
2023-05-17T09:00:24.014Z,1025.65
2023-05-17T09:01:26.512Z,1025.68
2023-05-17T09:02:24.008Z,1025.66
2023-05-17T09:03:24.120Z,1025.61
2023-05-17T09:04:23.965Z,1025.68
2023-05-17T09:05:24.018Z,1025.65
2023-05-17T09:06:23.924Z,1025.66
2023-05-17T09:07:23.872Z,1025.64
2023-05-17T09:08:23.832Z,1025.66
2023-05-17T09:09:23.870Z,1025.65
2023-05-17T09:10:23.828Z,1025.63
2023-05-17T09:11:23.788Z,1025.65
2023-05-17T09:12:25.636Z,1025.62
2023-05-17T09:13:23.764Z,1025.62
2023-05-17T09:14:23.750Z,1025.63
2023-05-17T09:15:23.736Z,1025.61
2023-05-17T09:16:23.739Z,1025.65
2023-05-17T09:17:23.743Z,1025.61
2023-05-17T09:18:23.783Z,1025.62
2023-05-17T09:19:23.777Z,1025.57
2023-05-17T09:20:23.672Z,1025.61
2023-05-17T09:21:23.663Z,1025.61
2023-05-17T09:22:23.651Z,1025.56
2023-05-17T09:23:23.656Z,1025.58
2023-05-17T09:24:25.151Z,1025.62
2023-05-17T09:25:23.565Z,1025.67
2023-05-17T09:26:23.642Z,1025.60
2023-05-17T09:27:23.595Z,1025.59
2023-05-17T09:28:23.582Z,1025.59
2023-05-17T09:29:23.558Z,1025.70
2023-05-17T09:30:25.141Z,1025.74
2023-05-17T09:31:23.619Z,1025.65
2023-05-17T09:32:23.530Z,1025.68
2023-05-17T09:33:23.516Z,1025.74
2023-05-17T09:34:23.478Z,1025.73
2023-05-17T09:35:23.437Z,1025.73
2023-05-17T09:36:23.518Z,1025.72
2023-05-17T09:37:23.413Z,1025.63
2023-05-17T09:38:24.897Z,1025.66
2023-05-17T09:39:23.409Z,1025.70
2023-05-17T09:40:23.477Z,1025.67
2023-05-17T09:41:23.506Z,1025.67
2023-05-17T09:42:23.381Z,1025.72
2023-05-17T09:43:23.342Z,1025.74
2023-05-17T09:44:23.546Z,1025.70
2023-05-17T09:45:23.320Z,1025.70
2023-05-17T09:46:23.319Z,1025.65
2023-05-17T09:47:23.306Z,1025.68
2023-05-17T09:48:23.377Z,1025.68
2023-05-17T09:49:23.262Z,1025.63
2023-05-17T09:50:25.983Z,1025.65
2023-05-17T09:51:23.224Z,1025.62
2023-05-17T09:52:23.281Z,1025.65
2023-05-17T09:53:23.266Z,1025.62
2023-05-17T09:54:23.244Z,1025.67
2023-05-17T09:55:23.222Z,1025.70
2023-05-17T09:56:23.190Z,1025.64
2023-05-17T09:57:23.163Z,1025.59
2023-05-17T09:58:23.185Z,1025.60
2023-05-17T09:59:23.202Z,1025.63
2023-05-17T10:00:23.143Z,1025.57
2023-05-17T10:01:23.149Z,1025.59
2023-05-17T10:02:23.215Z,1025.52
2023-05-17T10:03:23.173Z,1025.51
2023-05-17T10:04:23.112Z,1025.47
2023-05-17T10:05:23.122Z,1025.42
2023-05-17T10:06:38.485Z,1025.49
2023-05-17T10:07:24.075Z,1025.54
2023-05-17T10:08:23.089Z,1025.63
2023-05-17T10:09:23.235Z,1025.63
2023-05-17T10:10:23.020Z,1025.60
2023-05-17T10:11:22.994Z,1025.58
2023-05-17T10:12:23.808Z,1025.59
2023-05-17T10:13:22.946Z,1025.58
2023-05-17T10:14:23.416Z,1025.58
2023-05-17T10:15:22.952Z,1025.47
2023-05-17T10:16:23.087Z,1025.48
2023-05-17T10:17:22.888Z,1025.53
2023-05-17T10:18:23.230Z,1025.55
2023-05-17T10:19:22.987Z,1025.52
2023-05-17T10:20:22.961Z,1025.50
2023-05-17T10:21:22.833Z,1025.55
2023-05-17T10:22:23.881Z,1025.59
2023-05-17T10:23:22.945Z,1025.60
2023-05-17T10:24:22.788Z,1025.57
2023-05-17T10:25:22.833Z,1025.60
2023-05-17T10:26:22.807Z,1025.59
2023-05-17T10:27:22.825Z,1025.62
2023-05-17T10:28:22.794Z,1025.67
2023-05-17T10:29:22.836Z,1025.57
2023-05-17T10:30:22.700Z,1025.60
2023-05-17T10:31:22.715Z,1025.58
2023-05-17T10:32:22.829Z,1025.60
2023-05-17T10:33:22.794Z,1025.57
2023-05-17T10:34:22.886Z,1025.50
2023-05-17T10:35:22.734Z,1025.49
2023-05-17T10:36:22.679Z,1025.52
2023-05-17T10:37:22.632Z,1025.49
2023-05-17T10:38:26.293Z,1025.43
2023-05-17T10:39:23.657Z,1025.43
2023-05-17T10:40:23.035Z,1025.44
2023-05-17T10:41:22.833Z,1025.46
2023-05-17T10:42:22.693Z,1025.40
2023-05-17T10:43:22.686Z,1025.39
2023-05-17T10:44:22.534Z,1025.30
2023-05-17T10:45:22.584Z,1025.28
2023-05-17T10:46:22.601Z,1025.41
2023-05-17T10:47:22.738Z,1025.40
2023-05-17T10:48:22.705Z,1025.38
2023-05-17T10:49:24.757Z,1025.37
2023-05-17T10:50:22.484Z,1025.32
2023-05-17T10:51:22.590Z,1025.33
2023-05-17T10:52:22.505Z,1025.31
2023-05-17T10:53:23.371Z,1025.26
2023-05-17T10:54:22.462Z,1025.32
2023-05-17T10:55:22.378Z,1025.32
2023-05-17T10:56:23.092Z,1025.38
2023-05-17T10:57:22.444Z,1025.36
2023-05-17T10:58:22.390Z,1025.32
2023-05-17T10:59:22.403Z,1025.32
2023-05-17T11:00:22.369Z,1025.28
2023-05-17T11:01:22.460Z,1025.32
2023-05-17T11:02:22.332Z,1025.32
2023-05-17T11:03:22.362Z,1025.28
2023-05-17T11:04:22.357Z,1025.23
2023-05-17T11:05:22.402Z,1025.25
2023-05-17T11:06:25.597Z,1025.25
2023-05-17T11:07:22.470Z,1025.20
2023-05-17T11:08:22.401Z,1025.21
2023-05-17T11:09:22.254Z,1025.23
2023-05-17T11:10:22.250Z,1025.22
2023-05-17T11:11:22.276Z,1025.19
2023-05-17T11:12:22.225Z,1025.19
2023-05-17T11:13:22.249Z,1025.22
2023-05-17T11:14:22.232Z,1025.23
2023-05-17T11:15:22.356Z,1025.28
2023-05-17T11:16:22.143Z,1025.16
2023-05-17T11:17:22.162Z,1025.17
2023-05-17T11:18:30.038Z,1025.15
2023-05-17T11:19:23.176Z,1025.14
2023-05-17T11:20:22.211Z,1025.15
2023-05-17T11:21:22.119Z,1025.14
2023-05-17T11:22:22.425Z,1025.16
2023-05-17T11:23:22.051Z,1025.12
2023-05-17T11:24:22.397Z,1025.09
2023-05-17T11:25:22.210Z,1025.10
2023-05-17T11:26:22.080Z,1025.12
2023-05-17T11:27:22.976Z,1025.06
2023-05-17T11:28:22.850Z,1025.10
2023-05-17T11:29:21.963Z,1025.11
2023-05-17T11:30:21.917Z,1025.15
2023-05-17T11:31:22.220Z,1025.14
2023-05-17T11:32:21.936Z,1025.15
2023-05-17T11:33:33.079Z,1025.08
2023-05-17T11:34:22.872Z,1025.10
2023-05-17T11:35:22.025Z,1025.11
2023-05-17T11:36:21.929Z,1025.14
2023-05-17T11:37:21.843Z,1025.09
2023-05-17T11:38:21.820Z,1025.11
2023-05-17T11:39:21.798Z,1025.14
2023-05-17T11:40:21.772Z,1025.19
2023-05-17T11:42:21.758Z,1025.23
2023-05-17T11:43:21.778Z,1025.24
2023-05-17T11:44:21.792Z,1025.20
2023-05-17T11:45:24.794Z,1025.22
2023-05-17T11:46:21.766Z,1025.22
2023-05-17T11:47:21.855Z,1025.15
2023-05-17T11:48:21.769Z,1025.13
2023-05-17T11:49:34.365Z,1025.12
2023-05-17T11:50:22.710Z,1025.10
2023-05-17T11:51:24.622Z,1025.12
2023-05-17T11:52:21.660Z,1025.11
2023-05-17T11:53:21.676Z,1025.12
2023-05-17T11:54:21.643Z,1025.12
2023-05-17T11:55:22.546Z,1025.21
2023-05-17T11:56:26.465Z,1025.26
2023-05-17T11:57:22.547Z,1025.23
2023-05-17T11:58:21.531Z,1025.13
2023-05-17T11:59:21.576Z,1025.11
2023-05-17T12:00:21.553Z,1025.15
2023-05-17T12:01:21.600Z,1025.13
2023-05-17T12:02:21.504Z,1025.06
2023-05-17T12:03:21.474Z,1024.99
2023-05-17T12:04:21.467Z,1024.97
2023-05-17T12:05:21.460Z,1025.05
2023-05-17T12:06:21.475Z,1025.15
2023-05-17T12:07:21.428Z,1025.08